Time;durP1;ratioP1;P1;durP2;ratioP2;P2;SDS_P1;SDS_P2;PMS_P1;PMS_P2;Temp;Humidity;BMP_temperature;BMP_pressure;BME280_temperature;BME280_humidity;BME280_pressure;Samples;Min_cycle;Max_cycle;Signal;HPM_P1;HPM_P2
2022/09/17 00:00:39;;;;;;;;;;;;;;;;;;2131960;27;19923;-40
2022/09/17 00:01:40;;;;;;;;;;;;;;;;;;2131721;27;20060;-40
2022/09/17 00:02:46;;;;;;;;;;;;;;;;;;2131963;27;19923;-40
2022/09/17 00:03:47;;;;;;;;;;;;;;;;;;2131820;27;20485;-40
2022/09/17 00:04:48;;;;;;;;;;;;;;;;;;2131805;27;19931;-40
2022/09/17 00:05:49;;;;;;;;;;;;;;;;;;2131947;27;20360;-40
2022/09/17 00:06:50;;;;;;;;;;;;;;;;;;2131866;27;19923;-40
2022/09/17 00:07:51;;;;;;;;;;;;;;;;;;2131823;27;19927;-40
2022/09/17 00:08:52;;;;;;;;;;;;;;;;;;2131938;27;20076;-40
2022/09/17 00:09:52;;;;;;;;;;;;;;;;;;2131804;27;19984;-40
2022/09/17 00:10:53;;;;;;;;;;;;;;;;;;2131854;27;19968;-39
2022/09/17 00:11:54;;;;;;;;;;;;;;;;;;2131654;27;20026;-40
2022/09/17 00:12:55;;;;;;;;;;;;;;;;;;2131509;27;19977;-40
2022/09/17 00:13:56;;;;;;;;;;;;;;;;;;2131935;27;19923;-40
2022/09/17 00:14:57;;;;;;;;;;;;;;;;;;2132016;27;19923;-40
2022/09/17 00:15:57;;;;;;;;;;;;;;;;;;2131699;27;19979;-40
2022/09/17 00:16:58;;;;;;;;;;;;;;;;;;2131838;27;20019;-40
2022/09/17 00:18:02;;;;;;;;;;;;;;;;;;2131786;27;20019;-40
2022/09/17 00:19:03;;;;;;;;;;;;;;;;;;2131748;27;19983;-40
2022/09/17 00:20:03;;;;;;;;;;;;;;;;;;2131817;27;19923;-40
2022/09/17 00:21:04;;;;;;;;;;;;;;;;;;2131735;27;20269;-40
2022/09/17 00:22:05;;;;;;;;;;;;;;;;;;2131684;27;19923;-40
2022/09/17 00:23:07;;;;;;;;;;;;;;;;;;2131867;27;19975;-41
2022/09/17 00:24:08;;;;;;;;;;;;;;;;;;2131835;27;19926;-41
2022/09/17 00:25:08;;;;;;;;;;;;;;;;;;2132245;27;20363;-42
2022/09/17 00:26:09;;;;;;;;;;;;;;;;;;2133392;27;19930;-41
2022/09/17 00:27:10;;;;;;;;;;;;;;;;;;2133306;27;19961;-44
2022/09/17 00:28:11;;;;;;;;;;;;;;;;;;2133734;27;20352;-44
2022/09/17 00:29:12;;;;;;;;;;;;;;;;;;2133423;27;19923;-45
2022/09/17 00:30:12;;;;;;;;;;;;;;;;;;2133234;27;19923;-44
2022/09/17 00:31:13;;;;;;;;;;;;;;;;;;2133431;27;19981;-41
2022/09/17 00:32:14;;;;;;;;;;;;;;;;;;2133312;27;19993;-42
2022/09/17 00:33:15;;;;;;;;;;;;;;;;;;2133173;27;20039;-42
2022/09/17 00:34:16;;;;;;;;;;;;;;;;;;2133437;27;20376;-41
2022/09/17 00:35:17;;;;;;;;;;;;;;;;;;2133396;27;19975;-42
2022/09/17 00:36:19;;;;;;;;;;;;;;;;;;2133102;27;20443;-42
2022/09/17 00:37:20;;;;;;;;;;;;;;;;;;2133196;27;19923;-42
2022/09/17 00:38:21;;;;;;;;;;;;;;;;;;2133172;27;19930;-42
2022/09/17 00:39:22;;;;;;;;;;;;;;;;;;2133172;27;19930;-41
2022/09/17 00:40:22;;;;;;;;;;;;;;;;;;2133089;27;19923;-41
2022/09/17 00:41:24;;;;;;;;;;;;;;;;;;2133170;27;19923;-42
2022/09/17 00:42:24;;;;;;;;;;;;;;;;;;2133078;27;19923;-42
2022/09/17 00:43:25;;;;;;;;;;;;;;;;;;2133215;27;20022;-42
2022/09/17 00:44:26;;;;;;;;;;;;;;;;;;2133256;27;20364;-41
2022/09/17 00:45:27;;;;;;;;;;;;;;;;;;2133113;27;20407;-42
2022/09/17 00:46:27;;;;;;;;;;;;;;;;;;2133250;27;20402;-44
2022/09/17 00:47:28;;;;;;;;;;;;;;;;;;2133088;27;20475;-44
2022/09/17 00:48:29;;;;;;;;;;;;;;;;;;2133334;27;20394;-44
2022/09/17 00:49:30;;;;;;;;;;;;;;;;;;2133055;27;19938;-44
2022/09/17 00:50:31;;;;;;;;;;;;;;;;;;2133199;27;19930;-44
2022/09/17 00:51:32;;;;;;;;;;;;;;;;;;2133319;27;20023;-42
2022/09/17 00:52:32;;;;;;;;;;;;;;;;;;2133048;27;19923;-42
2022/09/17 00:53:33;;;;;;;;;;;;;;;;;;2133172;27;19969;-42
2022/09/17 00:54:34;;;;;;;;;;;;;;;;;;2133173;27;20391;-41
2022/09/17 00:55:35;;;;;;;;;;;;;;;;;;2133190;27;19924;-42
2022/09/17 00:56:36;;;;;;;;;;;;;;;;;;2132872;27;20456;-43
2022/09/17 00:57:37;;;;;;;;;;;;;;;;;;2133116;27;20022;-42
2022/09/17 00:58:37;;;;;;;;;;;;;;;;;;2132974;27;20017;-42
2022/09/17 00:59:41;;;;;;;;;;;;;;;;;;2133169;27;19942;-42
2022/09/17 01:00:42;;;;;;;;;;;;;;;;;;2132981;27;20395;-42
2022/09/17 01:01:43;;;;;;;;;;;;;;;;;;2132977;27;20047;-42
2022/09/17 01:02:44;;;;;;;;;;;;;;;;;;2133103;27;19930;-42
2022/09/17 01:03:45;;;;;;;;;;;;;;;;;;2132933;27;19975;-42
2022/09/17 01:04:45;;;;;;;;;;;;;;;;;;2133032;27;19960;-42
2022/09/17 01:05:46;;;;;;;;;;;;;;;;;;2133177;27;19923;-42
2022/09/17 01:06:47;;;;;;;;;;;;;;;;;;2133024;27;19930;-42
2022/09/17 01:07:48;;;;;;;;;;;;;;;;;;2128974;27;19985;-42
2022/09/17 01:08:49;;;;;;;;;;;;;;;;;;2124391;28;19971;-42
2022/09/17 01:09:50;;;;;;;;;;;;;;;;;;2124402;28;20018;-42
2022/09/17 01:10:50;;;;;;;;;;;;;;;;;;2124356;28;19945;-42
2022/09/17 01:11:51;;;;;;;;;;;;;;;;;;2131532;27;20022;-42
2022/09/17 01:12:52;;;;;;;;;;;;;;;;;;2132976;27;19923;-42
2022/09/17 01:13:53;;;;;;;;;;;;;;;;;;2132911;27;19993;-42
2022/09/17 01:14:53;;;;;;;;;;;;;;;;;;2132909;27;19923;-42
2022/09/17 01:15:55;;;;;;;;;;;;;;;;;;2133114;27;19923;-43
2022/09/17 01:16:55;;;;;;;;;;;;;;;;;;2132982;27;19951;-44
2022/09/17 01:17:58;;;;;;;;;;;;;;;;;;2132951;27;20352;-44
2022/09/17 01:18:58;;;;;;;;;;;;;;;;;;2133064;27;20042;-42
2022/09/17 01:19:59;;;;;;;;;;;;;;;;;;2133092;27;20041;-45
2022/09/17 01:21:00;;;;;;;;;;;;;;;;;;2132884;27;19923;-46
2022/09/17 01:22:01;;;;;;;;;;;;;;;;;;2132818;27;19923;-44
2022/09/17 01:23:01;;;;;;;;;;;;;;;;;;2132831;27;19966;-44
2022/09/17 01:24:02;;;;;;;;;;;;;;;;;;2132917;27;20167;-44
2022/09/17 01:25:03;;;;;;;;;;;;;;;;;;2132758;27;20022;-45
2022/09/17 01:26:04;;;;;;;;;;;;;;;;;;2132837;27;20436;-45
2022/09/17 01:27:05;;;;;;;;;;;;;;;;;;2132734;27;19930;-44
2022/09/17 01:28:06;;;;;;;;;;;;;;;;;;2132770;27;19923;-44
2022/09/17 01:29:07;;;;;;;;;;;;;;;;;;2132965;27;19988;-44
2022/09/17 01:30:08;;;;;;;;;;;;;;;;;;2132796;27;19970;-46
2022/09/17 01:31:09;;;;;;;;;;;;;;;;;;2132812;27;20415;-44
2022/09/17 01:32:09;;;;;;;;;;;;;;;;;;2132710;27;19952;-44
2022/09/17 01:33:10;;;;;;;;;;;;;;;;;;2132788;27;20392;-44
2022/09/17 01:34:11;;;;;;;;;;;;;;;;;;2132729;27;19974;-45
2022/09/17 01:35:12;;;;;;;;;;;;;;;;;;2132957;27;20007;-44
2022/09/17 01:36:13;;;;;;;;;;;;;;;;;;2132628;27;20313;-45
2022/09/17 01:37:14;;;;;;;;;;;;;;;;;;2132779;27;19937;-45
2022/09/17 01:38:15;;;;;;;;;;;;;;;;;;2132968;27;19932;-44
2022/09/17 01:39:16;;;;;;;;;;;;;;;;;;2132776;27;20351;-44
2022/09/17 01:40:17;;;;;;;;;;;;;;;;;;2132933;27;19967;-44
2022/09/17 01:41:18;;;;;;;;;;;;;;;;;;2132727;27;19927;-44
2022/09/17 01:42:18;;;;;;;;;;;;;;;;;;2132856;27;19930;-45
2022/09/17 01:43:20;;;;;;;;;;;;;;;;;;2132834;27;20368;-44
2022/09/17 01:44:21;;;;;;;;;;;;;;;;;;2132738;27;19971;-45
2022/09/17 01:45:22;;;;;;;;;;;;;;;;;;2133095;27;20011;-45
2022/09/17 01:46:23;;;;;;;;;;;;;;;;;;2132742;27;19930;-45
2022/09/17 01:47:24;;;;;;;;;;;;;;;;;;2132820;27;20006;-44
2022/09/17 01:48:25;;;;;;;;;;;;;;;;;;2132824;27;20269;-44
2022/09/17 01:49:26;;;;;;;;;;;;;;;;;;2132851;27;20009;-44
2022/09/17 01:50:26;;;;;;;;;;;;;;;;;;2132671;27;20399;-44
2022/09/17 01:51:27;;;;;;;;;;;;;;;;;;2132693;27;20267;-44
2022/09/17 01:52:30;;;;;;;;;;;;;;;;;;2132741;27;19942;-45
2022/09/17 01:53:31;;;;;;;;;;;;;;;;;;2132843;27;19931;-44
2022/09/17 01:54:31;;;;;;;;;;;;;;;;;;2132694;27;19930;-45
2022/09/17 01:55:32;;;;;;;;;;;;;;;;;;2132787;27;20362;-46
2022/09/17 01:56:33;;;;;;;;;;;;;;;;;;2132495;27;19929;-45
2022/09/17 01:57:34;;;;;;;;;;;;;;;;;;2132809;27;19973;-44
2022/09/17 01:58:34;;;;;;;;;;;;;;;;;;2132605;27;20403;-45
2022/09/17 01:59:35;;;;;;;;;;;;;;;;;;2132613;27;19963;-44
2022/09/17 02:00:36;;;;;;;;;;;;;;;;;;2132705;27;19926;-44
2022/09/17 02:01:37;;;;;;;;;;;;;;;;;;2132565;27;19923;-44
2022/09/17 02:02:38;;;;;;;;;;;;;;;;;;2132756;27;19927;-43
2022/09/17 02:03:39;;;;;;;;;;;;;;;;;;2132478;27;19926;-43
2022/09/17 02:04:40;;;;;;;;;;;;;;;;;;2132715;27;20003;-45
2022/09/17 02:05:41;;;;;;;;;;;;;;;;;;2132346;27;19935;-44
2022/09/17 02:06:41;;;;;;;;;;;;;;;;;;2132897;27;19929;-42
2022/09/17 02:07:42;;;;;;;;;;;;;;;;;;2132531;27;20087;-41
2022/09/17 02:08:43;;;;;;;;;;;;;;;;;;2132733;27;19923;-42
2022/09/17 02:09:44;;;;;;;;;;;;;;;;;;2132803;27;20286;-42
2022/09/17 02:10:45;;;;;;;;;;;;;;;;;;2132605;27;19968;-42
2022/09/17 02:11:46;;;;;;;;;;;;;;;;;;2132446;27;19937;-42
2022/09/17 02:12:46;;;;;;;;;;;;;;;;;;2132448;27;19981;-41
2022/09/17 02:13:47;;;;;;;;;;;;;;;;;;2132656;27;19930;-41
2022/09/17 02:14:48;;;;;;;;;;;;;;;;;;2132605;27;19934;-42
2022/09/17 02:15:49;;;;;;;;;;;;;;;;;;2132474;27;20027;-41
2022/09/17 02:16:50;;;;;;;;;;;;;;;;;;2132371;27;19946;-42
2022/09/17 02:17:51;;;;;;;;;;;;;;;;;;2132618;27;20426;-42
2022/09/17 02:18:51;;;;;;;;;;;;;;;;;;2132428;27;19923;-42
2022/09/17 02:19:53;;;;;;;;;;;;;;;;;;2132453;27;19923;-42
2022/09/17 02:20:54;;;;;;;;;;;;;;;;;;2132592;27;19923;-42
2022/09/17 02:21:55;;;;;;;;;;;;;;;;;;2132386;27;19923;-42
2022/09/17 02:22:55;;;;;;;;;;;;;;;;;;2132494;27;19923;-42
2022/09/17 02:23:56;;;;;;;;;;;;;;;;;;2132518;27;20027;-42
2022/09/17 02:24:57;;;;;;;;;;;;;;;;;;2132523;27;19923;-42
2022/09/17 02:25:58;;;;;;;;;;;;;;;;;;2132384;27;19985;-41
2022/09/17 02:26:59;;;;;;;;;;;;;;;;;;2132555;27;20025;-42
2022/09/17 02:28:00;;;;;;;;;;;;;;;;;;2132419;27;19980;-42
2022/09/17 02:29:02;;;;;;;;;;;;;;;;;;2132708;27;19930;-43
2022/09/17 02:30:03;;;;;;;;;;;;;;;;;;2132436;27;20017;-44
2022/09/17 02:31:03;;;;;;;;;;;;;;;;;;2132371;27;19944;-44
2022/09/17 02:32:04;;;;;;;;;;;;;;;;;;2132462;27;20368;-45
2022/09/17 02:33:05;;;;;;;;;;;;;;;;;;2132348;27;20013;-44
2022/09/17 02:34:07;;;;;;;;;;;;;;;;;;2132466;27;19930;-44
2022/09/17 02:35:07;;;;;;;;;;;;;;;;;;2132447;27;19942;-44
2022/09/17 02:36:08;;;;;;;;;;;;;;;;;;2132309;27;20419;-44
2022/09/17 02:37:09;;;;;;;;;;;;;;;;;;2132343;27;19927;-45
2022/09/17 02:38:10;;;;;;;;;;;;;;;;;;2132800;27;20414;-43
2022/09/17 02:39:11;;;;;;;;;;;;;;;;;;2132443;27;19930;-42
2022/09/17 02:40:12;;;;;;;;;;;;;;;;;;2132469;27;19962;-42
2022/09/17 02:41:13;;;;;;;;;;;;;;;;;;2132453;27;19923;-42
2022/09/17 02:42:16;;;;;;;;;;;;;;;;;;2132223;27;20329;-42
2022/09/17 02:43:17;;;;;;;;;;;;;;;;;;2132427;27;19972;-42
2022/09/17 02:44:18;;;;;;;;;;;;;;;;;;2132370;27;20407;-42
2022/09/17 02:45:18;;;;;;;;;;;;;;;;;;2132312;27;20025;-42
2022/09/17 02:46:19;;;;;;;;;;;;;;;;;;2132200;27;19952;-42
2022/09/17 02:47:20;;;;;;;;;;;;;;;;;;2132310;27;20446;-42
2022/09/17 02:48:21;;;;;;;;;;;;;;;;;;2131811;27;19923;-42
2022/09/17 02:49:22;;;;;;;;;;;;;;;;;;2132487;27;19927;-42
2022/09/17 02:50:23;;;;;;;;;;;;;;;;;;2132280;27;19946;-42
2022/09/17 02:51:24;;;;;;;;;;;;;;;;;;2132178;27;19937;-42
2022/09/17 02:52:25;;;;;;;;;;;;;;;;;;2132295;27;19927;-43
2022/09/17 02:53:25;;;;;;;;;;;;;;;;;;2132172;27;19930;-42
2022/09/17 02:54:26;;;;;;;;;;;;;;;;;;2132313;27;19952;-42
2022/09/17 02:55:27;;;;;;;;;;;;;;;;;;2132202;27;19926;-42
2022/09/17 02:56:28;;;;;;;;;;;;;;;;;;2132252;27;19963;-42
2022/09/17 02:57:28;;;;;;;;;;;;;;;;;;2132308;27;20466;-42
2022/09/17 02:58:29;;;;;;;;;;;;;;;;;;2132340;27;19935;-42
2022/09/17 02:59:30;;;;;;;;;;;;;;;;;;2132279;27;20582;-42
2022/09/17 03:00:31;;;;;;;;;;;;;;;;;;2132160;27;20287;-42
2022/09/17 03:01:32;;;;;;;;;;;;;;;;;;2132013;27;20018;-42
2022/09/17 03:02:33;;;;;;;;;;;;;;;;;;2132407;27;19923;-42
2022/09/17 03:03:34;;;;;;;;;;;;;;;;;;2132322;27;19975;-42
2022/09/17 03:04:35;;;;;;;;;;;;;;;;;;2132105;27;20059;-42
2022/09/17 03:05:36;;;;;;;;;;;;;;;;;;2132307;27;19930;-42
2022/09/17 03:06:37;;;;;;;;;;;;;;;;;;2132030;27;19950;-42
2022/09/17 03:07:38;;;;;;;;;;;;;;;;;;2132291;27;19923;-42
2022/09/17 03:08:39;;;;;;;;;;;;;;;;;;2132270;27;20021;-42
2022/09/17 03:09:40;;;;;;;;;;;;;;;;;;2132460;27;20000;-44
2022/09/17 03:10:42;;;;;;;;;;;;;;;;;;2132023;27;20391;-44
2022/09/17 03:11:42;;;;;;;;;;;;;;;;;;2131903;27;20291;-44
2022/09/17 03:12:43;;;;;;;;;;;;;;;;;;2132104;27;19923;-45
2022/09/17 03:13:44;;;;;;;;;;;;;;;;;;2132132;27;19962;-45
2022/09/17 03:14:45;;;;;;;;;;;;;;;;;;2132223;27;20373;-44
2022/09/17 03:15:45;;;;;;;;;;;;;;;;;;2132071;27;19972;-44
2022/09/17 03:16:47;;;;;;;;;;;;;;;;;;2131965;27;20237;-45
2022/09/17 03:17:47;;;;;;;;;;;;;;;;;;2132243;27;20379;-45
2022/09/17 03:18:53;;;;;;;;;;;;;;;;;;2132116;27;20352;-44
2022/09/17 03:19:54;;;;;;;;;;;;;;;;;;2132045;27;19923;-44
2022/09/17 03:20:55;;;;;;;;;;;;;;;;;;2132135;27;19923;-44
2022/09/17 03:21:55;;;;;;;;;;;;;;;;;;2131952;27;19923;-44
2022/09/17 03:22:56;;;;;;;;;;;;;;;;;;2132347;27;19923;-44
2022/09/17 03:23:59;;;;;;;;;;;;;;;;;;2132474;27;20013;-44
2022/09/17 03:25:00;;;;;;;;;;;;;;;;;;2132024;27;20273;-44
2022/09/17 03:26:00;;;;;;;;;;;;;;;;;;2132050;27;19930;-44
2022/09/17 03:27:01;;;;;;;;;;;;;;;;;;2132005;27;20383;-44
2022/09/17 03:28:02;;;;;;;;;;;;;;;;;;2132043;27;19923;-45
2022/09/17 03:29:03;;;;;;;;;;;;;;;;;;2132019;27;19923;-45
2022/09/17 03:30:04;;;;;;;;;;;;;;;;;;2132196;27;19971;-45
2022/09/17 03:31:04;;;;;;;;;;;;;;;;;;2132305;27;20313;-42
2022/09/17 03:32:05;;;;;;;;;;;;;;;;;;2132083;27;19952;-42
2022/09/17 03:33:06;;;;;;;;;;;;;;;;;;2132149;27;20329;-42
2022/09/17 03:34:07;;;;;;;;;;;;;;;;;;2131998;27;19923;-42
2022/09/17 03:35:08;;;;;;;;;;;;;;;;;;2132007;27;19966;-42
2022/09/17 03:36:09;;;;;;;;;;;;;;;;;;2131809;27;19927;-42
2022/09/17 03:37:10;;;;;;;;;;;;;;;;;;2131895;27;19987;-42
2022/09/17 03:38:11;;;;;;;;;;;;;;;;;;2132254;27;19976;-42
2022/09/17 03:39:12;;;;;;;;;;;;;;;;;;2132063;27;19923;-42
2022/09/17 03:40:13;;;;;;;;;;;;;;;;;;2132013;27;19923;-42
2022/09/17 03:41:13;;;;;;;;;;;;;;;;;;2132082;27;19930;-43
2022/09/17 03:42:14;;;;;;;;;;;;;;;;;;2131938;27;19946;-42
2022/09/17 03:43:15;;;;;;;;;;;;;;;;;;2132106;27;19923;-42
2022/09/17 03:44:18;;;;;;;;;;;;;;;;;;2132068;27;19975;-42
2022/09/17 03:45:18;;;;;;;;;;;;;;;;;;2131907;27;19927;-42
2022/09/17 03:46:19;;;;;;;;;;;;;;;;;;2131816;27;20071;-42
2022/09/17 03:47:20;;;;;;;;;;;;;;;;;;2132110;27;19934;-42
2022/09/17 03:48:21;;;;;;;;;;;;;;;;;;2132166;27;19930;-42
2022/09/17 03:49:22;;;;;;;;;;;;;;;;;;2131935;27;19952;-42
2022/09/17 03:50:23;;;;;;;;;;;;;;;;;;2131870;27;20269;-42
2022/09/17 03:51:24;;;;;;;;;;;;;;;;;;2131784;27;19930;-42
2022/09/17 03:52:25;;;;;;;;;;;;;;;;;;2131881;27;19923;-42
2022/09/17 03:53:26;;;;;;;;;;;;;;;;;;2131846;27;19924;-42
2022/09/17 03:54:27;;;;;;;;;;;;;;;;;;2131890;27;19966;-42
2022/09/17 03:55:28;;;;;;;;;;;;;;;;;;2132039;27;19923;-42
2022/09/17 03:56:28;;;;;;;;;;;;;;;;;;2131607;27;19991;-42
2022/09/17 03:57:29;;;;;;;;;;;;;;;;;;2131992;27;19923;-42
2022/09/17 03:58:30;;;;;;;;;;;;;;;;;;2131552;27;19923;-42
2022/09/17 03:59:31;;;;;;;;;;;;;;;;;;2131484;27;19973;-42
2022/09/17 04:00:31;;;;;;;;;;;;;;;;;;2131647;27;19923;-44
2022/09/17 04:01:32;;;;;;;;;;;;;;;;;;2131891;27;19923;-45
2022/09/17 04:02:33;;;;;;;;;;;;;;;;;;2131832;27;19923;-44
2022/09/17 04:03:34;;;;;;;;;;;;;;;;;;2131939;27;19923;-44
2022/09/17 04:04:35;;;;;;;;;;;;;;;;;;2131929;27;19923;-44
2022/09/17 04:05:36;;;;;;;;;;;;;;;;;;2132156;27;19969;-46
2022/09/17 04:06:37;;;;;;;;;;;;;;;;;;2131834;27;19956;-46
2022/09/17 04:07:38;;;;;;;;;;;;;;;;;;2131749;27;20159;-44
2022/09/17 04:08:38;;;;;;;;;;;;;;;;;;2131824;27;20332;-45
2022/09/17 04:09:39;;;;;;;;;;;;;;;;;;2131810;27;19923;-44
2022/09/17 04:10:40;;;;;;;;;;;;;;;;;;2131988;27;20379;-43
2022/09/17 04:11:41;;;;;;;;;;;;;;;;;;2131709;27;19962;-44
2022/09/17 04:12:42;;;;;;;;;;;;;;;;;;2131908;27;20342;-44
2022/09/17 04:13:43;;;;;;;;;;;;;;;;;;2131857;27;19971;-44
2022/09/17 04:14:43;;;;;;;;;;;;;;;;;;2131915;27;19923;-44
2022/09/17 04:15:44;;;;;;;;;;;;;;;;;;2131791;27;20067;-46
2022/09/17 04:16:45;;;;;;;;;;;;;;;;;;2131585;27;19923;-45
2022/09/17 04:17:46;;;;;;;;;;;;;;;;;;2131779;27;19923;-44
2022/09/17 04:18:47;;;;;;;;;;;;;;;;;;2131723;27;20364;-46
2022/09/17 04:19:48;;;;;;;;;;;;;;;;;;2131898;27;19931;-46
2022/09/17 04:20:49;;;;;;;;;;;;;;;;;;2131931;27;19931;-42
2022/09/17 04:21:50;;;;;;;;;;;;;;;;;;2131837;27;19930;-42
2022/09/17 04:22:51;;;;;;;;;;;;;;;;;;2131970;27;20295;-42
2022/09/17 04:23:52;;;;;;;;;;;;;;;;;;2132060;27;19923;-44
2022/09/17 04:24:53;;;;;;;;;;;;;;;;;;2131846;27;19923;-44
2022/09/17 04:25:54;;;;;;;;;;;;;;;;;;2131697;27;20277;-44
2022/09/17 04:26:54;;;;;;;;;;;;;;;;;;2131676;27;19942;-44
2022/09/17 04:27:55;;;;;;;;;;;;;;;;;;2132087;27;20368;-44
2022/09/17 04:28:56;;;;;;;;;;;;;;;;;;2131831;27;19930;-44
2022/09/17 04:29:57;;;;;;;;;;;;;;;;;;2131743;27;20008;-44
2022/09/17 04:30:57;;;;;;;;;;;;;;;;;;2131698;27;19977;-44
2022/09/17 04:31:58;;;;;;;;;;;;;;;;;;2131880;27;19995;-45
2022/09/17 04:32:59;;;;;;;;;;;;;;;;;;2131897;27;19969;-44
2022/09/17 04:34:00;;;;;;;;;;;;;;;;;;2131769;27;19923;-44
2022/09/17 04:35:01;;;;;;;;;;;;;;;;;;2131670;27;19971;-44
2022/09/17 04:36:02;;;;;;;;;;;;;;;;;;2131603;27;19923;-46
2022/09/17 04:37:02;;;;;;;;;;;;;;;;;;2131463;27;19923;-44
2022/09/17 04:38:03;;;;;;;;;;;;;;;;;;2131764;27;19923;-44
2022/09/17 04:39:04;;;;;;;;;;;;;;;;;;2131631;27;20336;-44
2022/09/17 04:40:05;;;;;;;;;;;;;;;;;;2131802;27;20013;-44
2022/09/17 04:41:08;;;;;;;;;;;;;;;;;;2131601;27;19923;-44
2022/09/17 04:42:09;;;;;;;;;;;;;;;;;;2131587;27;20307;-45
2022/09/17 04:43:10;;;;;;;;;;;;;;;;;;2131766;27;19927;-42
2022/09/17 04:44:11;;;;;;;;;;;;;;;;;;2131573;27;19949;-46
2022/09/17 04:45:12;;;;;;;;;;;;;;;;;;2131606;27;20403;-42
2022/09/17 04:46:13;;;;;;;;;;;;;;;;;;2131557;27;20025;-42
2022/09/17 04:47:14;;;;;;;;;;;;;;;;;;2131683;27;20029;-42
2022/09/17 04:48:14;;;;;;;;;;;;;;;;;;2131570;27;20018;-42
2022/09/17 04:49:15;;;;;;;;;;;;;;;;;;2131552;27;19931;-42
2022/09/17 04:50:16;;;;;;;;;;;;;;;;;;2131606;27;20011;-42
2022/09/17 04:51:17;;;;;;;;;;;;;;;;;;2131778;27;19930;-45
2022/09/17 04:52:18;;;;;;;;;;;;;;;;;;2131606;27;20366;-45
2022/09/17 04:53:18;;;;;;;;;;;;;;;;;;2131607;27;20011;-45
2022/09/17 04:54:20;;;;;;;;;;;;;;;;;;2131359;27;20376;-44
2022/09/17 04:55:20;;;;;;;;;;;;;;;;;;2131753;27;20363;-44
2022/09/17 04:56:21;;;;;;;;;;;;;;;;;;2131451;27;19963;-44
2022/09/17 04:57:24;;;;;;;;;;;;;;;;;;2131603;27;20385;-44
2022/09/17 04:58:25;;;;;;;;;;;;;;;;;;2131548;27;20300;-45
2022/09/17 04:59:26;;;;;;;;;;;;;;;;;;2131645;27;19931;-44
2022/09/17 05:00:26;;;;;;;;;;;;;;;;;;2131468;27;19929;-44
2022/09/17 05:01:27;;;;;;;;;;;;;;;;;;2131497;27;20406;-44
2022/09/17 05:02:28;;;;;;;;;;;;;;;;;;2131547;27;20323;-44
2022/09/17 05:03:29;;;;;;;;;;;;;;;;;;2131402;27;19923;-44
2022/09/17 05:04:30;;;;;;;;;;;;;;;;;;2131508;27;19930;-44
2022/09/17 05:05:31;;;;;;;;;;;;;;;;;;2131571;27;19955;-45
2022/09/17 05:06:31;;;;;;;;;;;;;;;;;;2131978;27;20063;-42
2022/09/17 05:07:32;;;;;;;;;;;;;;;;;;2131446;27;20018;-43
2022/09/17 05:08:33;;;;;;;;;;;;;;;;;;2131498;27;19947;-42
2022/09/17 05:09:34;;;;;;;;;;;;;;;;;;2131504;27;20363;-43
2022/09/17 05:10:35;;;;;;;;;;;;;;;;;;2131660;27;20015;-42
2022/09/17 05:11:36;;;;;;;;;;;;;;;;;;2132500;27;20372;-43
2022/09/17 05:12:37;;;;;;;;;;;;;;;;;;2133254;27;19927;-44
2022/09/17 05:13:38;;;;;;;;;;;;;;;;;;2133107;27;20034;-45
2022/09/17 05:14:38;;;;;;;;;;;;;;;;;;2133058;27;19950;-45
2022/09/17 05:15:39;;;;;;;;;;;;;;;;;;2133157;27;19923;-44
2022/09/17 05:16:40;;;;;;;;;;;;;;;;;;2132862;27;19927;-45
2022/09/17 05:17:41;;;;;;;;;;;;;;;;;;2132928;27;19930;-44
2022/09/17 05:18:42;;;;;;;;;;;;;;;;;;2133229;27;19923;-42
2022/09/17 05:19:43;;;;;;;;;;;;;;;;;;2132916;27;20491;-42
2022/09/17 05:20:43;;;;;;;;;;;;;;;;;;2132935;27;19923;-42
2022/09/17 05:21:44;;;;;;;;;;;;;;;;;;2133071;27;20153;-42
2022/09/17 05:22:45;;;;;;;;;;;;;;;;;;2132986;27;19930;-42
2022/09/17 05:23:46;;;;;;;;;;;;;;;;;;2132933;27;19922;-41
2022/09/17 05:24:47;;;;;;;;;;;;;;;;;;2132836;27;19923;-42
2022/09/17 05:25:48;;;;;;;;;;;;;;;;;;2132915;27;20395;-42
2022/09/17 05:26:49;;;;;;;;;;;;;;;;;;2132911;27;20027;-43
2022/09/17 05:27:50;;;;;;;;;;;;;;;;;;2133096;27;20030;-42
2022/09/17 05:28:50;;;;;;;;;;;;;;;;;;2132772;27;19952;-42
2022/09/17 05:29:51;;;;;;;;;;;;;;;;;;2132952;27;19927;-42
2022/09/17 05:30:52;;;;;;;;;;;;;;;;;;2133203;27;19961;-44
2022/09/17 05:31:53;;;;;;;;;;;;;;;;;;2132975;27;20390;-42
2022/09/17 05:32:54;;;;;;;;;;;;;;;;;;2132880;27;19930;-42
2022/09/17 05:33:55;;;;;;;;;;;;;;;;;;2133145;27;20011;-43
2022/09/17 05:34:55;;;;;;;;;;;;;;;;;;2133097;27;20343;-44
2022/09/17 05:35:56;;;;;;;;;;;;;;;;;;2133015;27;20011;-45
2022/09/17 05:36:57;;;;;;;;;;;;;;;;;;2132721;27;19923;-45
2022/09/17 05:37:58;;;;;;;;;;;;;;;;;;2132889;27;19987;-44
2022/09/17 05:38:58;;;;;;;;;;;;;;;;;;2132892;27;20299;-45
2022/09/17 05:39:59;;;;;;;;;;;;;;;;;;2132814;27;20452;-45
2022/09/17 05:41:00;;;;;;;;;;;;;;;;;;2132751;27;19930;-45
2022/09/17 05:42:01;;;;;;;;;;;;;;;;;;2132636;27;19923;-45
2022/09/17 05:43:02;;;;;;;;;;;;;;;;;;2132961;27;19930;-44
2022/09/17 05:44:03;;;;;;;;;;;;;;;;;;2132708;27;19931;-45
2022/09/17 05:45:04;;;;;;;;;;;;;;;;;;2132750;27;19923;-44
2022/09/17 05:46:05;;;;;;;;;;;;;;;;;;2132720;27;20398;-44
2022/09/17 05:47:06;;;;;;;;;;;;;;;;;;2132744;27;19929;-46
2022/09/17 05:48:07;;;;;;;;;;;;;;;;;;2132725;27;19930;-45
2022/09/17 05:49:08;;;;;;;;;;;;;;;;;;2132838;27;20006;-44
2022/09/17 05:50:09;;;;;;;;;;;;;;;;;;2132481;27;19934;-43
2022/09/17 05:51:10;;;;;;;;;;;;;;;;;;2132651;27;19923;-44
2022/09/17 05:52:11;;;;;;;;;;;;;;;;;;2132659;27;19952;-44
2022/09/17 05:53:12;;;;;;;;;;;;;;;;;;2132951;27;20348;-45
2022/09/17 05:54:13;;;;;;;;;;;;;;;;;;2132690;27;19946;-45
2022/09/17 05:55:13;;;;;;;;;;;;;;;;;;2132737;27;19968;-47
2022/09/17 05:56:14;;;;;;;;;;;;;;;;;;2132776;27;20166;-46
2022/09/17 05:57:15;;;;;;;;;;;;;;;;;;2131921;27;20021;-46
2022/09/17 05:58:17;;;;;;;;;;;;;;;;;;2132655;27;19923;-43
2022/09/17 05:59:17;;;;;;;;;;;;;;;;;;2132841;27;19930;-43
2022/09/17 06:00:18;;;;;;;;;;;;;;;;;;2132632;27;19927;-43
2022/09/17 06:01:19;;;;;;;;;;;;;;;;;;2132576;27;19923;-44
2022/09/17 06:02:20;;;;;;;;;;;;;;;;;;2132571;27;19923;-44
2022/09/17 06:03:21;;;;;;;;;;;;;;;;;;2132778;27;19945;-45
2022/09/17 06:04:22;;;;;;;;;;;;;;;;;;2132845;27;19930;-47
2022/09/17 06:05:23;;;;;;;;;;;;;;;;;;2132783;27;20291;-43
2022/09/17 06:06:28;;;;;;;;;;;;;;;;;;2132617;27;19972;-44
2022/09/17 06:07:28;;;;;;;;;;;;;;;;;;2132684;27;19927;-44
2022/09/17 06:08:29;;;;;;;;;;;;;;;;;;2132562;27;20019;-42
2022/09/17 06:09:30;;;;;;;;;;;;;;;;;;2132871;27;19930;-48
2022/09/17 06:10:31;;;;;;;;;;;;;;;;;;2132863;27;20033;-43
2022/09/17 06:11:32;;;;;;;;;;;;;;;;;;2132363;27;19970;-43
2022/09/17 06:12:34;;;;;;;;;;;;;;;;;;2132520;27;19923;-44
2022/09/17 06:13:35;;;;;;;;;;;;;;;;;;2132469;27;20375;-44
2022/09/17 06:14:35;;;;;;;;;;;;;;;;;;2132763;27;19966;-42
2022/09/17 06:15:36;;;;;;;;;;;;;;;;;;2132549;27;20013;-42
2022/09/17 06:16:37;;;;;;;;;;;;;;;;;;2132582;27;19927;-43
2022/09/17 06:17:38;;;;;;;;;;;;;;;;;;2132669;27;19930;-43
2022/09/17 06:18:39;;;;;;;;;;;;;;;;;;2132930;27;20295;-42
2022/09/17 06:19:39;;;;;;;;;;;;;;;;;;2132458;27;19930;-42
2022/09/17 06:20:41;;;;;;;;;;;;;;;;;;2132485;27;19930;-43
2022/09/17 06:21:41;;;;;;;;;;;;;;;;;;2132514;27;20355;-42
2022/09/17 06:22:42;;;;;;;;;;;;;;;;;;2131613;27;19962;-43
2022/09/17 06:23:43;;;;;;;;;;;;;;;;;;2132552;27;19923;-44
2022/09/17 06:24:44;;;;;;;;;;;;;;;;;;2132453;27;19923;-44
2022/09/17 06:25:44;;;;;;;;;;;;;;;;;;2132605;27;19923;-45
2022/09/17 06:26:45;;;;;;;;;;;;;;;;;;2132450;27;19946;-45
2022/09/17 06:27:46;;;;;;;;;;;;;;;;;;2132466;27;19958;-44
2022/09/17 06:28:47;;;;;;;;;;;;;;;;;;2132782;27;19923;-43
2022/09/17 06:29:48;;;;;;;;;;;;;;;;;;2132551;27;20030;-43
2022/09/17 06:30:51;;;;;;;;;;;;;;;;;;2132458;27;19938;-43
2022/09/17 06:31:52;;;;;;;;;;;;;;;;;;2132296;27;19923;-43
2022/09/17 06:32:54;;;;;;;;;;;;;;;;;;2132579;27;19923;-43
2022/09/17 06:33:54;;;;;;;;;;;;;;;;;;2132346;27;19972;-42
2022/09/17 06:34:56;;;;;;;;;;;;;;;;;;2132535;27;19923;-43
2022/09/17 06:35:59;;;;;;;;;;;;;;;;;;2132426;27;19929;-43
2022/09/17 06:36:59;;;;;;;;;;;;;;;;;;2132349;27;19927;-43
2022/09/17 06:38:00;;;;;;;;;;;;;;;;;;2132389;27;19962;-43
2022/09/17 06:39:01;;;;;;;;;;;;;;;;;;2132521;27;19923;-43
2022/09/17 06:40:03;;;;;;;;;;;;;;;;;;2132655;27;19923;-44
2022/09/17 06:41:04;;;;;;;;;;;;;;;;;;2132464;27;19927;-45
2022/09/17 06:42:04;;;;;;;;;;;;;;;;;;2132387;27;20288;-44
2022/09/17 06:43:06;;;;;;;;;;;;;;;;;;2132337;27;20276;-45
2022/09/17 06:44:06;;;;;;;;;;;;;;;;;;2132749;27;20399;-43
2022/09/17 06:45:08;;;;;;;;;;;;;;;;;;2132250;27;19923;-43
2022/09/17 06:46:12;;;;;;;;;;;;;;;;;;2132430;27;19923;-43
2022/09/17 06:47:13;;;;;;;;;;;;;;;;;;2131971;27;19923;-43
2022/09/17 06:48:14;;;;;;;;;;;;;;;;;;2132722;27;20523;-45
2022/09/17 06:49:16;;;;;;;;;;;;;;;;;;2132571;27;19968;-43
2022/09/17 06:50:17;;;;;;;;;;;;;;;;;;2132417;27;19923;-43
2022/09/17 06:51:18;;;;;;;;;;;;;;;;;;2132318;27;20256;-43
2022/09/17 06:52:18;;;;;;;;;;;;;;;;;;2132572;27;19950;-43
2022/09/17 06:53:19;;;;;;;;;;;;;;;;;;2132346;27;20369;-44
2022/09/17 06:54:20;;;;;;;;;;;;;;;;;;2132605;27;19962;-44
2022/09/17 06:55:21;;;;;;;;;;;;;;;;;;2132388;27;19944;-46
2022/09/17 06:56:22;;;;;;;;;;;;;;;;;;2132200;27;19966;-44